createdAt,value
2024-01-21T00:01:08.696Z,2.08
2024-01-21T00:05:21.811Z,1.42
2024-01-21T00:09:34.381Z,1.00
2024-01-21T00:13:46.936Z,0.60
2024-01-21T00:17:59.609Z,1.58
2024-01-21T00:22:12.207Z,1.00
2024-01-21T00:26:24.734Z,1.20
2024-01-21T00:30:37.227Z,1.40
2024-01-21T00:34:49.731Z,2.13
2024-01-21T00:39:03.489Z,1.42
2024-01-21T00:43:15.992Z,1.80
2024-01-21T00:47:28.584Z,1.25
2024-01-21T00:51:41.207Z,1.95
2024-01-21T00:55:53.902Z,2.08
2024-01-21T01:00:07.907Z,1.98
2024-01-21T01:04:20.578Z,2.08
2024-01-21T01:08:33.238Z,1.25
2024-01-21T01:12:45.829Z,1.88
2024-01-21T01:16:58.373Z,1.58
2024-01-21T01:21:14.614Z,1.23
2024-01-21T01:25:28.742Z,1.70
2024-01-21T01:29:41.268Z,1.83
2024-01-21T01:33:54.184Z,1.10
2024-01-21T01:38:13.568Z,1.70
2024-01-21T01:42:26.275Z,1.65
2024-01-21T01:46:38.967Z,1.13
2024-01-21T01:50:51.931Z,0.82
2024-01-21T01:55:04.617Z,1.05
2024-01-21T01:59:17.785Z,2.35
2024-01-21T02:03:30.759Z,1.63
2024-01-21T02:07:43.362Z,1.25
2024-01-21T02:11:55.957Z,1.08
2024-01-21T02:16:08.733Z,1.15
2024-01-21T02:20:21.263Z,2.38
2024-01-21T02:24:35.106Z,1.27
2024-01-21T02:28:47.796Z,1.60
2024-01-21T02:33:00.380Z,1.45
2024-01-21T02:37:13.120Z,1.63
2024-01-21T02:41:25.655Z,1.67
2024-01-21T02:45:38.383Z,1.60
2024-01-21T02:49:51.189Z,0.82
2024-01-21T02:54:04.176Z,1.48
2024-01-21T02:58:17.170Z,1.30
2024-01-21T03:02:29.700Z,1.20
2024-01-21T03:06:44.615Z,1.10
2024-01-21T03:10:57.215Z,1.40
2024-01-21T03:15:10.282Z,1.70
2024-01-21T03:19:23.202Z,1.25
2024-01-21T03:23:36.296Z,1.80
2024-01-21T03:27:49.948Z,1.15
2024-01-21T03:32:02.893Z,1.13
2024-01-21T03:36:15.546Z,1.00
2024-01-21T03:40:28.080Z,1.73
2024-01-21T03:44:40.557Z,1.75
2024-01-21T03:48:53.979Z,0.77
2024-01-21T03:53:06.498Z,1.70
2024-01-21T03:57:20.511Z,1.48
2024-01-21T04:01:35.073Z,1.23
2024-01-21T04:05:47.634Z,1.70
2024-01-21T04:10:00.451Z,1.67
2024-01-21T04:14:12.950Z,0.80
2024-01-21T04:18:25.680Z,1.20
2024-01-21T04:22:38.427Z,1.05
2024-01-21T04:26:50.915Z,1.27
2024-01-21T04:31:03.434Z,1.48
2024-01-21T04:35:16.030Z,1.65
2024-01-21T04:39:28.919Z,0.90
2024-01-21T04:43:42.054Z,1.65
2024-01-21T04:47:54.642Z,2.03
2024-01-21T04:52:07.471Z,1.00
2024-01-21T04:56:20.580Z,1.40
2024-01-21T05:00:33.094Z,0.45
2024-01-21T05:04:45.885Z,1.45
2024-01-21T05:08:58.444Z,1.25
2024-01-21T05:13:11.018Z,0.77
2024-01-21T05:17:23.777Z,1.13
2024-01-21T05:21:36.426Z,1.35
2024-01-21T05:25:52.307Z,0.90
2024-01-21T05:30:05.705Z,1.58
2024-01-21T05:34:18.314Z,1.45
2024-01-21T05:38:30.883Z,1.13
2024-01-21T05:42:43.589Z,1.10
2024-01-21T05:46:59.109Z,1.40
2024-01-21T05:51:12.000Z,0.47
2024-01-21T05:55:24.605Z,0.90
2024-01-21T05:59:37.274Z,1.40
2024-01-21T06:03:49.854Z,0.90
2024-01-21T06:08:03.337Z,0.60
2024-01-21T06:12:15.891Z,0.50
2024-01-21T06:16:30.211Z,0.95
2024-01-21T06:20:42.714Z,0.55
2024-01-21T06:24:55.276Z,1.25
2024-01-21T06:29:09.340Z,0.43
2024-01-21T06:33:22.311Z,1.08
2024-01-21T06:37:34.915Z,0.65
2024-01-21T06:41:47.869Z,0.80
2024-01-21T06:46:00.387Z,0.85
2024-01-21T06:50:13.150Z,1.02
2024-01-21T06:54:25.665Z,0.63
2024-01-21T06:58:39.068Z,1.08
2024-01-21T07:02:51.630Z,0.28
2024-01-21T07:07:04.456Z,1.55
2024-01-21T07:11:17.067Z,0.73
2024-01-21T07:15:29.627Z,0.68
2024-01-21T07:19:42.285Z,0.65
2024-01-21T07:23:54.858Z,1.15
2024-01-21T07:28:07.872Z,1.10
2024-01-21T07:32:20.418Z,0.98
2024-01-21T07:36:33.004Z,0.88
2024-01-21T07:40:45.773Z,1.00
2024-01-21T07:45:02.032Z,0.75
2024-01-21T07:49:14.745Z,1.40
2024-01-21T07:53:27.873Z,0.70
2024-01-21T07:57:40.485Z,1.60
2024-01-21T08:01:53.156Z,1.27
2024-01-21T08:06:09.699Z,1.02
2024-01-21T08:10:22.437Z,0.82
2024-01-21T08:14:35.016Z,0.82
2024-01-21T08:18:47.767Z,1.45
2024-01-21T08:23:00.575Z,1.58
2024-01-21T08:27:13.112Z,0.82
2024-01-21T08:31:25.691Z,1.45
2024-01-21T08:35:38.699Z,1.10
2024-01-21T08:39:51.390Z,1.00
2024-01-21T08:44:08.500Z,1.65
2024-01-21T08:48:21.264Z,0.82
2024-01-21T08:52:34.490Z,1.48
2024-01-21T08:56:47.202Z,1.75
2024-01-21T09:00:59.891Z,1.52
2024-01-21T09:05:12.706Z,1.23
2024-01-21T09:09:25.250Z,1.40
2024-01-21T09:13:37.826Z,0.82
2024-01-21T09:17:51.406Z,1.45
2024-01-21T09:22:04.091Z,0.80
2024-01-21T09:26:17.188Z,1.10
2024-01-21T09:30:30.273Z,0.95
2024-01-21T09:34:43.212Z,1.00
2024-01-21T09:38:56.557Z,0.80
2024-01-21T09:43:09.266Z,1.00
2024-01-21T09:47:22.835Z,1.20
2024-01-21T09:51:38.910Z,1.02
2024-01-21T09:55:58.038Z,1.75
2024-01-21T10:00:14.837Z,1.17
2024-01-21T10:04:27.651Z,1.25
2024-01-21T10:08:41.948Z,1.40
2024-01-21T10:12:54.627Z,0.98
2024-01-21T10:17:07.299Z,0.93
2024-01-21T10:21:21.393Z,0.73
2024-01-21T10:25:33.989Z,0.93
2024-01-21T10:29:48.340Z,1.10
2024-01-21T10:34:04.246Z,0.80
2024-01-21T10:38:17.032Z,1.02
2024-01-21T10:42:30.282Z,0.90
2024-01-21T10:46:47.703Z,1.10
2024-01-21T10:51:00.711Z,0.93
2024-01-21T10:55:13.540Z,1.10
2024-01-21T10:59:26.625Z,1.40
2024-01-21T11:03:39.261Z,0.88
2024-01-21T11:08:03.839Z,1.00
2024-01-21T11:12:16.487Z,1.00
2024-01-21T11:16:30.147Z,1.10
2024-01-21T11:20:42.659Z,1.50
2024-01-21T11:24:58.062Z,1.15
2024-01-21T11:29:32.946Z,1.17
2024-01-21T11:33:45.828Z,1.00
2024-01-21T11:37:58.528Z,0.98
2024-01-21T11:42:11.175Z,1.10
2024-01-21T11:46:24.843Z,1.00
2024-01-21T11:50:37.458Z,1.02
2024-01-21T11:54:50.328Z,1.23
2024-01-21T11:59:03.051Z,1.58
2024-01-21T12:03:18.609Z,1.55
2024-01-21T12:07:31.442Z,1.35
2024-01-21T12:11:44.516Z,1.40
2024-01-21T12:15:57.891Z,1.20
2024-01-21T12:20:12.423Z,1.20
2024-01-21T12:24:25.181Z,1.55
2024-01-21T12:28:37.776Z,1.10
2024-01-21T12:32:58.288Z,1.42
2024-01-21T12:37:14.597Z,1.58
2024-01-21T12:41:27.829Z,2.03
2024-01-21T12:45:40.454Z,1.48
2024-01-21T12:49:53.033Z,1.63
2024-01-21T12:54:06.004Z,1.70
2024-01-21T12:58:18.970Z,1.42
2024-01-21T13:02:31.490Z,1.13
2024-01-21T13:06:44.105Z,1.60
2024-01-21T13:10:57.522Z,1.13
2024-01-21T13:15:10.541Z,1.38
2024-01-21T13:19:23.340Z,1.98
2024-01-21T13:23:35.969Z,1.80
2024-01-21T13:27:58.247Z,1.50
2024-01-21T13:32:10.814Z,1.65
2024-01-21T13:36:23.462Z,1.77
2024-01-21T13:40:36.127Z,1.40
2024-01-21T13:44:48.683Z,1.48
2024-01-21T13:49:01.285Z,1.75
2024-01-21T13:53:17.348Z,1.45
2024-01-21T13:57:29.873Z,1.50
2024-01-21T14:01:48.426Z,2.10
2024-01-21T14:06:07.276Z,1.90
2024-01-21T14:10:20.993Z,1.67
2024-01-21T14:14:33.582Z,1.65
2024-01-21T14:18:48.270Z,1.98
2024-01-21T14:23:01.358Z,1.75
2024-01-21T14:27:14.807Z,1.55
2024-01-21T14:31:29.083Z,1.48
2024-01-21T14:35:44.939Z,1.35
2024-01-21T14:39:57.528Z,1.05
2024-01-21T14:44:10.221Z,1.73
2024-01-21T14:48:22.815Z,1.63
2024-01-21T14:52:35.454Z,1.60
2024-01-21T14:56:48.084Z,1.30
2024-01-21T15:01:00.679Z,1.55
2024-01-21T15:05:13.405Z,1.80
2024-01-21T15:09:26.247Z,2.08
2024-01-21T15:13:45.301Z,1.60
2024-01-21T15:17:57.981Z,2.33
2024-01-21T15:22:10.640Z,1.45
2024-01-21T15:26:25.018Z,1.73
2024-01-21T15:30:38.109Z,1.45
2024-01-21T15:34:50.782Z,2.00
2024-01-21T15:39:03.400Z,1.77
2024-01-21T15:43:16.232Z,1.70
2024-01-21T15:47:28.727Z,1.02
2024-01-21T15:51:44.544Z,1.13
2024-01-21T15:55:58.837Z,0.93
2024-01-21T16:00:11.717Z,1.17
2024-01-21T16:04:24.380Z,1.05
2024-01-21T16:08:37.583Z,1.05
2024-01-21T16:12:51.033Z,1.52
2024-01-21T16:17:03.621Z,1.40
2024-01-21T16:21:16.852Z,1.50
2024-01-21T16:25:30.394Z,1.30
2024-01-21T16:29:42.877Z,1.88
2024-01-21T16:33:55.622Z,2.03
2024-01-21T16:38:08.180Z,1.17
2024-01-21T16:42:20.861Z,1.45
2024-01-21T16:46:34.269Z,1.33
2024-01-21T16:50:48.717Z,1.50
2024-01-21T16:55:01.518Z,1.30
2024-01-21T16:59:14.136Z,1.55
2024-01-21T17:03:28.625Z,2.30
2024-01-21T17:07:41.851Z,1.45
2024-01-21T17:11:58.522Z,1.70
2024-01-21T17:16:11.155Z,1.02
2024-01-21T17:20:23.646Z,1.60
2024-01-21T17:24:36.122Z,1.27
2024-01-21T17:28:49.173Z,1.00
2024-01-21T17:33:02.121Z,1.20
2024-01-21T17:37:15.480Z,1.02
2024-01-21T17:41:29.318Z,1.98
2024-01-21T17:45:41.982Z,1.52
2024-01-21T17:49:55.057Z,2.33
2024-01-21T17:54:07.646Z,2.10
2024-01-21T17:58:21.038Z,1.73
2024-01-21T18:02:33.894Z,2.60
2024-01-21T18:06:46.443Z,2.75
2024-01-21T18:10:59.024Z,2.83
2024-01-21T18:15:11.827Z,3.42
2024-01-21T18:19:24.534Z,3.53
2024-01-21T18:23:37.147Z,2.70
2024-01-21T18:27:49.669Z,2.92
2024-01-21T18:32:05.974Z,2.60
2024-01-21T18:36:21.129Z,2.92
2024-01-21T18:40:33.996Z,2.42
2024-01-21T18:44:46.787Z,2.30
2024-01-21T18:48:59.451Z,1.80
2024-01-21T18:53:12.036Z,2.97
2024-01-21T18:57:27.736Z,1.98
2024-01-21T19:01:40.686Z,2.60
2024-01-21T19:05:53.507Z,2.58
2024-01-21T19:10:07.575Z,2.78
2024-01-21T19:14:20.211Z,2.92
2024-01-21T19:18:32.813Z,4.03
2024-01-21T19:22:46.065Z,4.03
2024-01-21T19:26:58.848Z,4.13
2024-01-21T19:31:11.421Z,4.28
2024-01-21T19:35:24.169Z,4.43
2024-01-21T19:39:36.664Z,3.65
2024-01-21T19:43:50.273Z,2.50
2024-01-21T19:48:02.960Z,3.58
2024-01-21T19:52:15.519Z,4.63
2024-01-21T19:56:28.031Z,3.40
2024-01-21T20:00:40.560Z,3.05
2024-01-21T20:04:53.072Z,2.85
2024-01-21T20:09:05.766Z,3.08
2024-01-21T20:13:19.635Z,3.40
2024-01-21T20:17:33.282Z,2.58
2024-01-21T20:21:45.904Z,3.03
2024-01-21T20:26:00.561Z,2.47
2024-01-21T20:30:18.277Z,3.15
2024-01-21T20:34:31.040Z,2.67
2024-01-21T20:38:43.661Z,3.13
2024-01-21T20:42:56.622Z,1.95
2024-01-21T20:47:09.144Z,3.33
2024-01-21T20:51:21.655Z,2.35
2024-01-21T20:55:37.296Z,2.97
2024-01-21T20:59:49.828Z,1.23
2024-01-21T21:04:02.818Z,2.10
2024-01-21T21:08:15.438Z,3.10
2024-01-21T21:12:27.892Z,2.13
2024-01-21T21:16:40.452Z,1.48
2024-01-21T21:20:53.191Z,2.10
2024-01-21T21:25:06.531Z,2.00
2024-01-21T21:29:19.279Z,1.17
2024-01-21T21:33:32.030Z,2.25
2024-01-21T21:37:44.666Z,1.63
2024-01-21T21:41:57.284Z,2.17
2024-01-21T21:46:10.696Z,1.80
2024-01-21T21:50:23.422Z,1.45
2024-01-21T21:54:36.981Z,2.83
2024-01-21T21:58:50.479Z,1.42
2024-01-21T22:03:03.413Z,1.75
2024-01-21T22:07:16.350Z,1.80
2024-01-21T22:11:28.962Z,2.17
2024-01-21T22:15:43.347Z,2.03
2024-01-21T22:19:57.158Z,1.77
2024-01-21T22:24:10.336Z,2.00
2024-01-21T22:28:22.978Z,1.38
2024-01-21T22:32:36.187Z,2.10
2024-01-21T22:36:48.792Z,2.20
2024-01-21T22:41:01.782Z,1.75
2024-01-21T22:45:14.574Z,1.85
2024-01-21T22:49:31.627Z,1.42
2024-01-21T22:53:44.653Z,1.63
2024-01-21T22:57:58.268Z,1.60
2024-01-21T23:02:11.405Z,1.65
2024-01-21T23:06:25.001Z,1.75
2024-01-21T23:10:37.546Z,1.52
2024-01-21T23:14:50.106Z,1.25
2024-01-21T23:19:02.717Z,1.27
2024-01-21T23:23:15.549Z,1.30
2024-01-21T23:27:28.895Z,1.77
2024-01-21T23:31:41.432Z,1.38
2024-01-21T23:35:54.074Z,1.13
2024-01-21T23:40:07.683Z,1.13
2024-01-21T23:44:21.565Z,1.13
2024-01-21T23:48:34.820Z,1.27
2024-01-21T23:52:47.703Z,0.90
2024-01-21T23:57:00.262Z,2.05
